Paradise Valley, Nevada Weather observations

Data are for 10 minute period ending at time listed.
 Day   Time   Solar   Ave.   Ave.  Ave.  Vector  Max.   Baro.   Total    
  of    of     Rad.   Air    Rel.  Wind   Wind   Wind  Press.  Precip.   
Year   Day            Temp.  Hum.  Speed  Dir.   Gust                    
2015   (PST)  Kw/m2    F      %     mph   deg.    mph    mb.     in.     
-------------------------------------------------------------------------
 210    8:50   0.74   72.2    16    4.1    37     7.0   872.6    0.00 
 210    9:00   0.77   73.2    16    3.6    65     6.1   872.6    0.00 
 210    9:10   0.80   74.4    16    3.8    23     8.0   872.6    0.00 
 210    9:20   0.82   75.3    15    4.4    46     8.3   872.5    0.00 
 210    9:30   0.85   75.7    14    5.0    36     9.6   872.5    0.00 
 210    9:40   0.87   76.0    14    3.3    70     6.6   872.6    0.00 
 210    9:50   0.89   76.7    14    4.5    92     8.1   872.5    0.00 
 210   10:00   0.91   77.5    14    5.0    90     9.9   872.5    0.00 
 210   10:10   0.93   78.0    14    4.3    29     8.8   872.5    0.00 
 210   10:20   0.95   78.7    13    3.7    75     7.3   872.4    0.00 
 210   10:30   0.97   79.8    12    3.5    80     8.0   872.3    0.00 
 210   10:40   0.98   80.1    13    4.0    94     6.6   872.3    0.00 
 210   10:50   1.00   80.6    12    3.2    82     5.9   872.2    0.00 
 210   11:00   1.01   81.8    11    1.9    60     4.2   872.1    0.00 
 210   11:10   1.02   81.8    12    4.1    65     8.0   872.0    0.00 
 210   11:20   1.02   81.6    11    4.0    62    10.2   872.0    0.00 
 210   11:30   1.03   82.1    11    3.0   350     6.3   871.9    0.00 
 210   11:40   1.04   83.0    10    3.0   296     5.5   871.8    0.00 
 210   11:50   1.04   84.0    10    3.6   342    12.8   871.7    0.00 
 210   12:00   1.03   85.2    10    3.1   109     6.6   871.6    0.00 
 210   12:10   1.04   84.3    10    3.6    78     8.6   871.5    0.00 
 210   12:20   1.04   85.5     9    2.9   144     7.0   871.4    0.00 
 210   12:30   1.03   85.2     9    4.3   137     8.9   871.4    0.00 
 210   12:40   1.03   85.7     9    5.5   155    10.0   871.3    0.00 
 210   12:50   1.02   85.7     9    3.6   126     9.2   871.2    0.00 
 210   13:00   1.01   85.6     9    5.8    78     9.9   871.1    0.00 
 210   13:10   1.00   85.9     9    4.8    79     8.5   871.1    0.00 
 210   13:20   0.99   86.2     9    5.6   103    10.2   871.0    0.00 
 210   13:30   0.97   85.9     8    5.8    69    12.8   870.9    0.00 
 210   13:40   0.96   86.6     9    4.4   120    10.4   870.8    0.00 
 210   13:50   0.94   87.3     8    4.5   183     9.3   870.8    0.00 
 210   14:00   0.92   87.6     8    4.2   282     8.7   870.7    0.00 
 210   14:10   0.90   88.0     8    4.5   104     9.3   870.6    0.00 
 210   14:20   0.88   88.0     8    5.5   120    12.2   870.4    0.00 
 210   14:30   0.85   87.8     8    6.8    55    13.8   870.3    0.00 
 210   14:40   0.82   87.7     8    6.3    82    11.9   870.2    0.00 
 210   14:50   0.80   87.9     8    6.5    50    12.2   870.0    0.00 
 210   15:00   0.77   88.2     8    4.7    24     8.2   869.9    0.00 
 210   15:10   0.74   88.3     8    4.3    85     8.3   869.8    0.00 
 210   15:20   0.72   88.7     8    6.5    90    10.4   869.7    0.00 
 210   15:30   0.69   89.0     8    4.3   149     7.2   869.6    0.00 
 210   15:40   0.66   89.1     8    5.0    50     9.9   869.5    0.00 
 210   15:50   0.63   88.8     7    2.9    78     9.6   869.4    0.00 
 210   16:00   0.60   90.1     7    2.0   317     4.1   869.3    0.00 
 210   16:10   0.57   89.7     8    4.2    46     8.4   869.2    0.00 
 210   16:20   0.54   88.8     8    4.1    15     8.6   869.2    0.00 
 210   16:30   0.51   89.5     8    1.5   341     4.7   869.3    0.00 
 210   16:40   0.47   91.0     7    2.0   184     6.4   869.3    0.00 
 210   16:50   0.43   90.8     6    4.3   281    10.4   869.2    0.00 
 210   17:00   0.40   90.1     6    3.3   294     5.6   869.2    0.00 
 210   17:10   0.36   89.8     7    4.8   324    11.4   869.2    0.00 
 210   17:20   0.33   89.0     7    6.1   328    10.2   869.2    0.00 
 210   17:30   0.29   88.5     7    3.4   359     7.0   869.2    0.00 
 210   17:40   0.26   89.7     7    1.2   334     2.8   869.2    0.00 
 210   17:50   0.22   89.9     7    3.6   282     6.1   869.2    0.00 
 210   18:00   0.19   88.8     8    2.6   325     5.0   869.3    0.00 
 210   18:10   0.16   87.4     9    2.5   354     3.7   869.4    0.00 
 210   18:20   0.13   86.7    10    1.9   321     2.8   869.4    0.00 
 210   18:30   0.10   86.1    10    1.8   328     2.3   869.5    0.00 
 210   18:40   0.02   83.6    11    2.0   274     3.7   869.5    0.00 
 210   18:50   0.02   79.2    12    1.6   232     3.6   869.6    0.00 
 210   19:00   0.01   77.4    13    3.6   220     4.6   869.6    0.00 
 210   19:10   0.01   75.6    13    3.5   247     4.6   869.7    0.00 
 210   19:20   0.01   75.5    13    3.8   242     4.5   869.6    0.00 
 210   19:30   0.00   72.9    14    4.2   243     4.8   869.6    0.00 
 210   19:40   0.00   70.1    17    4.1   243     4.8   869.6    0.00 
 210   19:50   0.00   68.2    19    4.2   247     5.0   869.7    0.00 
 210   20:00   0.00   67.2    20    4.4   244     5.0   869.7    0.00 
 210   20:10   0.00   66.1    21    4.5   251     5.0   869.7    0.00 
 210   20:20   0.00   65.8    22    4.3   259     5.0   869.7    0.00 
 210   20:30   0.00   65.3    22    2.4   336     3.9   869.8    0.00 
 210   20:40   0.00   64.5    24    1.8    67     3.0   869.8    0.00 
 210   20:50   0.00   64.9    24    0.9    65     1.6   869.8    0.00 
 210   21:00   0.00   64.9    23    1.2    26     2.6   869.8    0.00 
 210   21:10   0.00   64.2    22    2.3   323     3.6   869.8    0.00 
 210   21:20   0.00   62.8    24    3.0   301     4.7   869.8    0.00 
 210   21:30   0.00   60.3    27    3.2   317     5.0   869.8    0.00 
 210   21:40   0.00   58.9    28    4.0   330     5.0   869.8    0.00 
 210   21:50   0.00   59.5    26    4.9   335     6.4   869.9    0.00 
 210   22:00   0.00   59.9    26    5.0   350     6.9   869.9    0.00 
 210   22:10   0.00   61.0    24    4.9     7     6.9   870.0    0.00 
 210   22:20   0.00   60.9    24    3.3     2     5.0   870.1    0.00 
 210   22:30   0.00   59.6    25    3.5   336     7.2   870.3    0.00 
 210   22:40   0.00   61.2    23    3.8   338     7.3   870.3    0.00 
 210   22:50   0.00   61.6    22    3.0     9     4.4   870.4    0.00 
 210   23:00   0.00   62.6    21    3.8     2     5.5   870.6    0.00 
 210   23:10   0.00   62.0    22    6.0   344    10.9   870.6    0.00 
 210   23:20   0.00   61.0    24    5.6   326     7.1   870.6    0.00 
 210   23:30   0.00   62.1    23    6.3   320     8.8   870.6    0.00 
 210   23:40   0.00   63.3    22    5.8   334     8.5   870.6    0.00 
 210   23:50   0.00   63.7    23    5.9   337     7.7   870.6    0.00 
 211    0:00   0.00   63.6    24    4.3   350     6.4   870.6    0.00 
 211    0:10   0.00   62.1    26    4.4   351     5.7   870.7    0.00 
 211    0:20   0.00   60.8    28    4.3   354     6.1   870.7    0.00 
 211    0:30   0.00   60.0    29    5.3   341     6.9   870.7    0.00 
 211    0:40   0.00   59.2    30    5.0   343     6.5   870.7    0.00 
 211    0:50   0.00   59.7    29    5.5   348     6.8   870.7    0.00 
 211    1:00   0.00   59.6    29    4.8   347     6.7   870.7    0.00 
 211    1:10   0.00   58.7    30    4.9   329     8.0   870.7    0.00 
 211    1:20   0.00   59.3    29    5.2   332     7.2   870.8    0.00 
 211    1:30   0.00   58.3    29    5.1   318     6.4   870.9    0.00 
 211    1:40   0.00   58.5    28    5.4   329     6.6   870.8    0.00 
 211    1:50   0.00   58.8    28    5.9   334     7.2   870.7    0.00 
 211    2:00   0.00   58.6    29    5.6   337     6.9   870.7    0.00 
 211    2:10   0.00   58.2    30    5.8   338     7.0   870.8    0.00 
 211    2:20   0.00   57.0    32    4.2   331     5.6   870.8    0.00 
 211    2:30   0.00   57.2    30    4.3   319     5.1   870.8    0.00 
 211    2:40   0.00   56.5    31    4.2   318     5.5   870.8    0.00 
 211    2:50   0.00   57.1    29    2.1   307     4.4   870.9    0.00 
 211    3:00   0.00   58.2    28    4.0   313     6.4   870.9    0.00 
 211    3:10   0.00   57.1    30    4.1   336     5.5   870.9    0.00 
 211    3:20   0.00   56.5    32    3.9   337     5.6   871.0    0.00 
 211    3:30   0.00   55.1    35    3.4   355     5.3   871.0    0.00 
 211    3:40   0.00   53.7    39    3.7   352     5.4   871.0    0.00 
 211    3:50   0.00   54.0    38    4.7   341     8.1   871.1    0.00 
 211    4:00   0.00   53.3    40    2.8    87     5.0   871.3    0.00 
 211    4:10   0.00   52.2    41    1.5   153     4.4   871.4    0.00 
 211    4:20   0.00   50.2    46    0.2   162     1.4   871.5    0.00 
 211    4:30   0.00   51.4    43    0.9   166     1.3   871.7    0.00 
 211    4:40   0.00   53.0    39    0.4   166     1.4   871.8    0.00 
 211    4:50   0.01   50.2    46    0.3   166     1.1   871.9    0.00 
 211    5:00   0.02   50.9    42    1.0   253     2.5   872.0    0.00 
 211    5:10   0.04   51.6    42    0.9   281     1.8   872.1    0.00 
 211    5:20   0.06   53.5    37    1.0   269     2.0   872.2    0.00 
 211    5:30   0.09   53.1    41    0.8   166     1.9   872.3    0.00 
 211    5:40   0.11   53.7    40    0.5   125     2.6   872.4    0.00 
 211    5:50   0.14   55.4    37    1.5   233     3.4   872.3    0.00 
 211    6:00   0.17   56.3    36    2.7   325     4.7   872.2    0.00 
 211    6:10   0.20   58.4    32    2.2   337     3.9   872.4    0.00 
 211    6:20   0.23   60.4    30    2.4   323     3.7   872.5    0.00 
 211    6:30   0.27   62.2    28    2.2   331     3.6   872.6    0.00 
 211    6:40   0.30   64.4    24    1.5   354     3.0   872.7    0.00 
 211    6:50   0.34   65.9    24    1.8     0     2.8   872.7    0.00 
 211    7:00   0.37   67.6    23    2.6    51     4.8   872.9    0.00 
 211    7:10   0.41   69.1    22    3.3    44     6.2   873.1    0.00 
 211    7:20   0.44   70.2    23    3.3    33     5.2   873.2    0.00 
 211    7:30   0.48   71.4    22    2.7    48     4.5   873.4    0.00 
 211    7:40   0.51   73.2    19    2.4   358     4.5   873.5    0.00 
 211    7:50   0.54   74.1    15    3.8   360     6.0   873.5    0.00 
 211    8:00   0.57   74.8    14    4.7   348     7.8   873.5    0.00 
 211    8:10   0.61   76.0    14    4.3   338     8.0   873.5    0.00 
 211    8:20   0.64   76.9    14    4.4   354     8.8   873.5    0.00 
 211    8:30   0.67   77.5    14    5.1   348     9.6   873.4    0.00 
 211    8:40   0.70   78.3    14    4.4   341     8.6   873.4    0.00 

Return to Paradise Valley graphs page.


Western Regional Climate Center,wrcc@dri.edu